ENT5KW EDDC-EDDH
Flight info
| Callsign | ENT5KW |
|---|---|
| Flight time | 0h 41m |
| Altitude | 28000 |
| Route | OSKAN3D/22 OSKAN M748 RARUP RARUP6A |
| Aircraft | B738/M-SDE2E3FGHIRWXY/LB1 |
Departure
| Time | 2026-04-20 19:15 |
|---|---|
| Airport | Dresden Airport (EDDC) |
Arrival
| Time | 2026-04-20 19:56 |
|---|---|
| Airport | Hamburg Helmut Schmidt Airport (EDDH) |
| Time | Latitude | Longitude | Altitude | Speed | Heading |
|---|---|---|---|---|---|
| 2026-04-20 18:58 | 51.12658 | 13.76481 | 711 ft | 0 kts | 221° |
| 2026-04-20 19:06 | 51.12672 | 13.76500 | 713 ft | 4 kts | 224° |
| 2026-04-20 19:06 | 51.12691 | 13.76531 | 711 ft | 4 kts | 231° |
| 2026-04-20 19:06 | 51.12706 | 13.76566 | 712 ft | 4 kts | 247° |
| 2026-04-20 19:07 | 51.12710 | 13.76602 | 712 ft | 4 kts | 298° |
| 2026-04-20 19:07 | 51.12708 | 13.76611 | 713 ft | 1 kts | 311° |
| 2026-04-20 19:09 | 51.12708 | 13.76610 | 710 ft | 0 kts | 311° |
| 2026-04-20 19:09 | 51.12724 | 13.76582 | 712 ft | 8 kts | 311° |
| 2026-04-20 19:10 | 51.12765 | 13.76507 | 710 ft | 9 kts | 311° |
| 2026-04-20 19:10 | 51.12816 | 13.76452 | 713 ft | 9 kts | 359° |
| 2026-04-20 19:10 | 51.12880 | 13.76515 | 712 ft | 13 kts | 41° |
| 2026-04-20 19:10 | 51.12953 | 13.76616 | 711 ft | 15 kts | 41° |
| 2026-04-20 19:11 | 51.13050 | 13.76747 | 711 ft | 21 kts | 40° |
| 2026-04-20 19:11 | 51.13165 | 13.76905 | 712 ft | 21 kts | 40° |
| 2026-04-20 19:11 | 51.13277 | 13.77058 | 713 ft | 22 kts | 41° |
| 2026-04-20 19:11 | 51.13396 | 13.77224 | 710 ft | 24 kts | 41° |
| 2026-04-20 19:12 | 51.13527 | 13.77403 | 712 ft | 25 kts | 41° |
| 2026-04-20 19:12 | 51.13656 | 13.77579 | 711 ft | 24 kts | 41° |
| 2026-04-20 19:12 | 51.13782 | 13.77755 | 713 ft | 26 kts | 40° |
| 2026-04-20 19:12 | 51.13922 | 13.77945 | 710 ft | 26 kts | 40° |
| 2026-04-20 19:13 | 51.14052 | 13.78124 | 711 ft | 24 kts | 41° |
| 2026-04-20 19:13 | 51.14175 | 13.78294 | 712 ft | 22 kts | 40° |
| 2026-04-20 19:13 | 51.14273 | 13.78343 | 713 ft | 15 kts | 325° |
| 2026-04-20 19:13 | 51.14342 | 13.78222 | 710 ft | 14 kts | 313° |
| 2026-04-20 19:14 | 51.14370 | 13.78086 | 715 ft | 14 kts | 242° |
| 2026-04-20 19:14 | 51.14268 | 13.77944 | 714 ft | 43 kts | 220° |
| 2026-04-20 19:14 | 51.13830 | 13.77339 | 718 ft | 120 kts | 221° |
| 2026-04-20 19:14 | 51.13032 | 13.76260 | 790 ft | 173 kts | 221° |
| 2026-04-20 19:15 | 51.12144 | 13.74988 | 1728 ft | 165 kts | 225° |
| 2026-04-20 19:15 | 51.11278 | 13.73702 | 2493 ft | 174 kts | 223° |
| 2026-04-20 19:15 | 51.10317 | 13.72303 | 2839 ft | 205 kts | 222° |
| 2026-04-20 19:15 | 51.09190 | 13.70690 | 3123 ft | 230 kts | 222° |
| 2026-04-20 19:16 | 51.07941 | 13.68923 | 3466 ft | 247 kts | 222° |
| 2026-04-20 19:16 | 51.06630 | 13.67079 | 4020 ft | 257 kts | 221° |
| 2026-04-20 19:16 | 51.05234 | 13.65121 | 4433 ft | 274 kts | 221° |
| 2026-04-20 19:16 | 51.03904 | 13.62908 | 5223 ft | 280 kts | 240° |
| 2026-04-20 19:17 | 51.03353 | 13.59971 | 6072 ft | 281 kts | 271° |
| 2026-04-20 19:17 | 51.03727 | 13.56987 | 6833 ft | 281 kts | 298° |
| 2026-04-20 19:17 | 51.04880 | 13.54565 | 7652 ft | 273 kts | 328° |
| 2026-04-20 19:17 | 51.06493 | 13.53013 | 8529 ft | 272 kts | 334° |
| 2026-04-20 19:18 | 51.08198 | 13.51703 | 9338 ft | 272 kts | 347° |
| 2026-04-20 19:18 | 51.10051 | 13.51090 | 10180 ft | 272 kts | 354° |
| 2026-04-20 19:18 | 51.11306 | 13.50761 | 10545 ft | 281 kts | 354° |
| 2026-04-20 19:18 | 51.13326 | 13.50241 | 10740 ft | 307 kts | 354° |
| 2026-04-20 19:19 | 51.15470 | 13.49273 | 10917 ft | 335 kts | 339° |
| 2026-04-20 19:19 | 51.17622 | 13.47555 | 11200 ft | 354 kts | 335° |
| 2026-04-20 19:19 | 51.19831 | 13.45668 | 11793 ft | 362 kts | 335° |
| 2026-04-20 19:19 | 51.22058 | 13.43749 | 12521 ft | 365 kts | 335° |
| 2026-04-20 19:20 | 51.24309 | 13.41821 | 13285 ft | 368 kts | 335° |
| 2026-04-20 19:20 | 51.26557 | 13.39913 | 13936 ft | 373 kts | 336° |
| 2026-04-20 19:20 | 51.28856 | 13.37975 | 14057 ft | 373 kts | 336° |
| 2026-04-20 19:20 | 51.31165 | 13.36040 | 14073 ft | 375 kts | 336° |
| 2026-04-20 19:21 | 51.33479 | 13.34105 | 14085 ft | 375 kts | 336° |
| 2026-04-20 19:21 | 51.35815 | 13.32157 | 14409 ft | 381 kts | 336° |
| 2026-04-20 19:21 | 51.38140 | 13.30218 | 15176 ft | 380 kts | 336° |
| 2026-04-20 19:21 | 51.40496 | 13.28251 | 15910 ft | 381 kts | 335° |
| 2026-04-20 19:22 | 51.42849 | 13.26284 | 16527 ft | 385 kts | 335° |
| 2026-04-20 19:22 | 51.45231 | 13.24293 | 17137 ft | 389 kts | 335° |
| 2026-04-20 19:22 | 51.47646 | 13.22271 | 17761 ft | 392 kts | 335° |
| 2026-04-20 19:22 | 51.50073 | 13.20235 | 18374 ft | 395 kts | 335° |
| 2026-04-20 19:23 | 51.52529 | 13.18174 | 18923 ft | 398 kts | 335° |
| 2026-04-20 19:23 | 51.54970 | 13.16026 | 19481 ft | 401 kts | 330° |
| 2026-04-20 19:23 | 51.57266 | 13.13548 | 20009 ft | 404 kts | 327° |
| 2026-04-20 19:23 | 51.59560 | 13.10894 | 20495 ft | 408 kts | 326° |
| 2026-04-20 19:24 | 51.61856 | 13.08187 | 20986 ft | 411 kts | 325° |
| 2026-04-20 19:24 | 51.64168 | 13.05459 | 21513 ft | 413 kts | 326° |
| 2026-04-20 19:24 | 51.66504 | 13.02721 | 22045 ft | 415 kts | 326° |
| 2026-04-20 19:24 | 51.68851 | 12.99988 | 22546 ft | 417 kts | 326° |
| 2026-04-20 19:25 | 51.71215 | 12.97248 | 23018 ft | 420 kts | 326° |
| 2026-04-20 19:25 | 51.73601 | 12.94492 | 23493 ft | 422 kts | 326° |
| 2026-04-20 19:25 | 51.76001 | 12.91722 | 23907 ft | 425 kts | 326° |
| 2026-04-20 19:25 | 51.78410 | 12.88940 | 24280 ft | 427 kts | 326° |
| 2026-04-20 19:26 | 51.80839 | 12.86134 | 24648 ft | 430 kts | 326° |
| 2026-04-20 19:26 | 51.83246 | 12.83349 | 24963 ft | 433 kts | 326° |
| 2026-04-20 19:26 | 51.85705 | 12.80500 | 25243 ft | 437 kts | 326° |
| 2026-04-20 19:26 | 51.88185 | 12.77622 | 25597 ft | 439 kts | 326° |
| 2026-04-20 19:27 | 51.90676 | 12.74728 | 25921 ft | 442 kts | 326° |
| 2026-04-20 19:27 | 51.93177 | 12.71817 | 26214 ft | 445 kts | 326° |
| 2026-04-20 19:27 | 51.95705 | 12.68871 | 26537 ft | 447 kts | 326° |
| 2026-04-20 19:27 | 51.98236 | 12.65916 | 26902 ft | 448 kts | 326° |
| 2026-04-20 19:28 | 52.00763 | 12.62961 | 27365 ft | 447 kts | 326° |
| 2026-04-20 19:28 | 52.03276 | 12.60019 | 27874 ft | 445 kts | 326° |
| 2026-04-20 19:28 | 52.05755 | 12.57112 | 28134 ft | 446 kts | 326° |
| 2026-04-20 19:29 | 52.10803 | 12.51183 | 28126 ft | 445 kts | 326° |
| 2026-04-20 19:29 | 52.15812 | 12.45282 | 28144 ft | 444 kts | 326° |
| 2026-04-20 19:30 | 52.20876 | 12.39303 | 28133 ft | 455 kts | 326° |
| 2026-04-20 19:30 | 52.26017 | 12.33214 | 28154 ft | 465 kts | 326° |
| 2026-04-20 19:31 | 52.31289 | 12.26950 | 28151 ft | 470 kts | 326° |
| 2026-04-20 19:31 | 52.36580 | 12.20640 | 28141 ft | 470 kts | 326° |
| 2026-04-20 19:32 | 52.41864 | 12.14320 | 28146 ft | 469 kts | 326° |
| 2026-04-20 19:32 | 52.47137 | 12.07996 | 28155 ft | 469 kts | 326° |
| 2026-04-20 19:33 | 52.52379 | 12.01691 | 28145 ft | 469 kts | 326° |
| 2026-04-20 19:33 | 52.57643 | 11.95341 | 28164 ft | 469 kts | 326° |
| 2026-04-20 19:34 | 52.62906 | 11.88972 | 28163 ft | 470 kts | 326° |
| 2026-04-20 19:34 | 52.68166 | 11.82587 | 28165 ft | 470 kts | 326° |
| 2026-04-20 19:35 | 52.73426 | 11.76182 | 28177 ft | 470 kts | 326° |
| 2026-04-20 19:35 | 52.78680 | 11.69765 | 27650 ft | 465 kts | 326° |
| 2026-04-20 19:35 | 52.81263 | 11.66600 | 27256 ft | 460 kts | 326° |
| 2026-04-20 19:36 | 52.83833 | 11.63449 | 26853 ft | 462 kts | 326° |
| 2026-04-20 19:36 | 52.86415 | 11.60240 | 26467 ft | 466 kts | 323° |
| 2026-04-20 19:36 | 52.88756 | 11.56473 | 26075 ft | 472 kts | 312° |
| 2026-04-20 19:36 | 52.90672 | 11.52030 | 25708 ft | 476 kts | 303° |
| 2026-04-20 19:37 | 52.92171 | 11.47116 | 25339 ft | 474 kts | 297° |
| 2026-04-20 19:37 | 52.93535 | 11.42184 | 24958 ft | 468 kts | 297° |
| 2026-04-20 19:37 | 52.94891 | 11.37295 | 24502 ft | 467 kts | 297° |
| 2026-04-20 19:37 | 52.96257 | 11.32411 | 24028 ft | 465 kts | 297° |
| 2026-04-20 19:38 | 52.97624 | 11.27556 | 23513 ft | 464 kts | 297° |
| 2026-04-20 19:38 | 52.98992 | 11.22726 | 22953 ft | 462 kts | 297° |
| 2026-04-20 19:38 | 53.00351 | 11.17931 | 22393 ft | 455 kts | 297° |
| 2026-04-20 19:38 | 53.01688 | 11.13210 | 21847 ft | 447 kts | 297° |
| 2026-04-20 19:39 | 53.02985 | 11.08626 | 21328 ft | 442 kts | 297° |
| 2026-04-20 19:39 | 53.04290 | 11.04010 | 20803 ft | 440 kts | 297° |
| 2026-04-20 19:39 | 53.05590 | 10.99399 | 20295 ft | 438 kts | 297° |
| 2026-04-20 19:39 | 53.06877 | 10.94824 | 19799 ft | 435 kts | 297° |
| 2026-04-20 19:40 | 53.08153 | 10.90281 | 19308 ft | 433 kts | 297° |
| 2026-04-20 19:40 | 53.09421 | 10.85752 | 18817 ft | 427 kts | 297° |
| 2026-04-20 19:40 | 53.10664 | 10.81302 | 18308 ft | 421 kts | 297° |
| 2026-04-20 19:40 | 53.11885 | 10.76923 | 17755 ft | 414 kts | 297° |
| 2026-04-20 19:41 | 53.13071 | 10.72661 | 17195 ft | 408 kts | 297° |
| 2026-04-20 19:41 | 53.14269 | 10.68347 | 16672 ft | 401 kts | 297° |
| 2026-04-20 19:41 | 53.15403 | 10.64256 | 16134 ft | 387 kts | 297° |
| 2026-04-20 19:41 | 53.16509 | 10.60258 | 15614 ft | 374 kts | 297° |
| 2026-04-20 19:42 | 53.17585 | 10.56366 | 15129 ft | 363 kts | 297° |
| 2026-04-20 19:42 | 53.18622 | 10.52604 | 14752 ft | 351 kts | 297° |
| 2026-04-20 19:42 | 53.19626 | 10.48962 | 14355 ft | 340 kts | 297° |
| 2026-04-20 19:42 | 53.20599 | 10.45424 | 13993 ft | 331 kts | 297° |
| 2026-04-20 19:43 | 53.21545 | 10.41983 | 13584 ft | 323 kts | 297° |
| 2026-04-20 19:43 | 53.22468 | 10.38621 | 13151 ft | 316 kts | 297° |
| 2026-04-20 19:43 | 53.23378 | 10.35301 | 12671 ft | 312 kts | 297° |
| 2026-04-20 19:43 | 53.24275 | 10.32024 | 12202 ft | 308 kts | 297° |
| 2026-04-20 19:44 | 53.25161 | 10.28783 | 11734 ft | 305 kts | 297° |
| 2026-04-20 19:44 | 53.26037 | 10.25575 | 11263 ft | 301 kts | 297° |
| 2026-04-20 19:44 | 53.26891 | 10.22439 | 10821 ft | 299 kts | 297° |
| 2026-04-20 19:44 | 53.27746 | 10.19299 | 10391 ft | 295 kts | 297° |
| 2026-04-20 19:45 | 53.28579 | 10.16229 | 9974 ft | 285 kts | 297° |
| 2026-04-20 19:45 | 53.29382 | 10.13267 | 9505 ft | 275 kts | 297° |
| 2026-04-20 19:45 | 53.30159 | 10.10399 | 9034 ft | 266 kts | 297° |
| 2026-04-20 19:45 | 53.30909 | 10.07624 | 8550 ft | 260 kts | 297° |
| 2026-04-20 19:46 | 53.31654 | 10.04872 | 8071 ft | 258 kts | 296° |
| 2026-04-20 19:46 | 53.32390 | 10.02149 | 7618 ft | 256 kts | 296° |
| 2026-04-20 19:46 | 53.33122 | 9.99439 | 7160 ft | 255 kts | 296° |
| 2026-04-20 19:46 | 53.33848 | 9.96743 | 6707 ft | 254 kts | 296° |
| 2026-04-20 19:47 | 53.34571 | 9.94057 | 6239 ft | 252 kts | 297° |
| 2026-04-20 19:47 | 53.35288 | 9.91389 | 5774 ft | 251 kts | 297° |
| 2026-04-20 19:47 | 53.36004 | 9.88724 | 5315 ft | 249 kts | 297° |
| 2026-04-20 19:47 | 53.36724 | 9.86085 | 4838 ft | 247 kts | 301° |
| 2026-04-20 19:48 | 53.37808 | 9.83922 | 4367 ft | 241 kts | 322° |
| 2026-04-20 19:48 | 53.39080 | 9.82106 | 3903 ft | 239 kts | 323° |
| 2026-04-20 19:48 | 53.40353 | 9.80322 | 3436 ft | 239 kts | 324° |
| 2026-04-20 19:48 | 53.41621 | 9.78527 | 3026 ft | 235 kts | 324° |
| 2026-04-20 19:49 | 53.42801 | 9.76807 | 2964 ft | 220 kts | 324° |
| 2026-04-20 19:49 | 53.43936 | 9.75126 | 2995 ft | 217 kts | 324° |
| 2026-04-20 19:49 | 53.45068 | 9.73440 | 2991 ft | 218 kts | 324° |
| 2026-04-20 19:49 | 53.46202 | 9.71755 | 3010 ft | 217 kts | 324° |
| 2026-04-20 19:50 | 53.47351 | 9.70100 | 2992 ft | 216 kts | 331° |
| 2026-04-20 19:50 | 53.48701 | 9.69442 | 2990 ft | 196 kts | 14° |
| 2026-04-20 19:50 | 53.49762 | 9.70475 | 2990 ft | 170 kts | 60° |
| 2026-04-20 19:50 | 53.50229 | 9.72226 | 2993 ft | 164 kts | 63° |
| 2026-04-20 19:51 | 53.50886 | 9.73777 | 2998 ft | 162 kts | 58° |
| 2026-04-20 19:51 | 53.51549 | 9.75331 | 2992 ft | 164 kts | 57° |
| 2026-04-20 19:51 | 53.52223 | 9.76807 | 3002 ft | 152 kts | 56° |
| 2026-04-20 19:51 | 53.52884 | 9.78200 | 2829 ft | 151 kts | 55° |
| 2026-04-20 19:52 | 53.53544 | 9.79564 | 2632 ft | 150 kts | 56° |
| 2026-04-20 19:52 | 53.54187 | 9.80876 | 2437 ft | 137 kts | 55° |
| 2026-04-20 19:52 | 53.54758 | 9.82035 | 2256 ft | 121 kts | 55° |
| 2026-04-20 19:52 | 53.55278 | 9.83096 | 2124 ft | 121 kts | 54° |
| 2026-04-20 19:53 | 53.55805 | 9.84171 | 1952 ft | 118 kts | 54° |
| 2026-04-20 19:53 | 53.56322 | 9.85222 | 1804 ft | 116 kts | 54° |
| 2026-04-20 19:53 | 53.56842 | 9.86277 | 1652 ft | 118 kts | 53° |
| 2026-04-20 19:53 | 53.57372 | 9.87352 | 1485 ft | 117 kts | 53° |
| 2026-04-20 19:54 | 53.57900 | 9.88413 | 1336 ft | 120 kts | 53° |
| 2026-04-20 19:54 | 53.58432 | 9.89493 | 1156 ft | 121 kts | 52° |
| 2026-04-20 19:54 | 53.58969 | 9.90577 | 1011 ft | 121 kts | 52° |
| 2026-04-20 19:54 | 53.59525 | 9.91707 | 852 ft | 128 kts | 52° |
| 2026-04-20 19:55 | 53.60084 | 9.92851 | 692 ft | 125 kts | 51° |
| 2026-04-20 19:55 | 53.60647 | 9.93995 | 524 ft | 123 kts | 48° |
| 2026-04-20 19:55 | 53.61207 | 9.95118 | 323 ft | 125 kts | 50° |
| 2026-04-20 19:55 | 53.61765 | 9.96248 | 134 ft | 124 kts | 50° |
| 2026-04-20 19:56 | 53.62128 | 9.96978 | 44 ft | 121 kts | 50° |
| 2026-04-20 19:56 | 53.62728 | 9.98197 | 42 ft | 70 kts | 50° |
| 2026-04-20 19:56 | 53.63013 | 9.98772 | 44 ft | 58 kts | 50° |
| 2026-04-20 19:56 | 53.63215 | 9.99183 | 46 ft | 27 kts | 50° |
| 2026-04-20 19:57 | 53.63296 | 9.99446 | 46 ft | 22 kts | 82° |
| 2026-04-20 19:57 | 53.63279 | 9.99635 | 47 ft | 7 kts | 100° |
| 2026-04-20 19:57 | 53.63269 | 9.99702 | 44 ft | 6 kts | 116° |
| 2026-04-20 19:57 | 53.63235 | 9.99749 | 47 ft | 8 kts | 152° |
| 2026-04-20 19:58 | 53.63162 | 9.99813 | 46 ft | 16 kts | 152° |
| 2026-04-20 19:58 | 53.63060 | 9.99902 | 47 ft | 11 kts | 153° |
| 2026-04-20 19:58 | 53.63029 | 9.99929 | 47 ft | 0 kts | 152° |
| 2026-04-20 19:59 | 53.63011 | 9.99946 | 47 ft | 8 kts | 152° |
| 2026-04-20 19:59 | 53.62955 | 10.00012 | 47 ft | 10 kts | 121° |
| 2026-04-20 19:59 | 53.62925 | 10.00123 | 47 ft | 10 kts | 123° |
| 2026-04-20 19:59 | 53.62893 | 10.00209 | 47 ft | 6 kts | 122° |
| 2026-04-20 20:00 | 53.62890 | 10.00217 | 47 ft | 0 kts | 122° |